Time;durP1;ratioP1;P1;durP2;ratioP2;P2;SDS_P1;SDS_P2;PMS_P1;PMS_P2;Temp;Humidity;BMP_temperature;BMP_pressure;BME280_temperature;BME280_humidity;BME280_pressure;Samples;Min_cycle;Max_cycle;Signal;HPM_P1;HPM_P2
2022/01/23 00:02:10;;;;;;;4.93;3.27;;;;;;;-0.48;100.00;97773.63;5052505;28;20206;-84
2022/01/23 00:04:37;;;;;;;4.40;3.10;;;;;;;-0.47;100.00;97776.16;5045495;28;20194;-85
2022/01/23 00:07:08;;;;;;;4.53;2.83;;;;;;;-0.46;100.00;97758.41;5034389;28;20238;-83
2022/01/23 00:09:35;;;;;;;6.53;3.90;;;;;;;-0.44;100.00;97744.06;5048362;28;20304;-83
2022/01/23 00:12:07;;;;;;;9.07;4.20;;;;;;;-0.47;100.00;97751.41;5048774;28;20240;-84
2022/01/23 00:17:20;;;;;;;5.40;2.90;;;;;;;-0.50;100.00;97741.91;5054361;28;20206;-83
2022/01/23 00:19:49;;;;;;;4.07;2.80;;;;;;;-0.44;100.00;97732.59;5040621;28;20199;-84
2022/01/23 00:22:18;;;;;;;4.10;2.33;;;;;;;-0.42;100.00;97728.84;5055820;28;20310;-85
2022/01/23 00:30:22;;;;;;;4.40;2.27;;;;;;;-0.55;100.00;97708.78;5047950;28;20210;-84
2022/01/23 00:32:50;;;;;;;4.00;2.23;;;;;;;-0.56;100.00;97713.22;5037709;28;20251;-88
2022/01/23 00:35:18;;;;;;;2.97;1.90;;;;;;;-0.49;100.00;97697.63;5033905;28;20229;-86
2022/01/23 00:37:45;;;;;;;4.20;1.97;;;;;;;-0.41;100.00;97703.13;5041625;28;20209;-84
2022/01/23 00:40:13;;;;;;;4.03;2.13;;;;;;;-0.37;100.00;97693.97;5056963;28;20214;-83
2022/01/23 00:42:42;;;;;;;4.83;1.70;;;;;;;-0.32;100.00;97689.09;5056032;28;20297;-83
2022/01/23 00:45:26;;;;;;;1.60;1.30;;;;;;;-0.23;100.00;97680.34;5063356;28;20205;-85
2022/01/23 00:47:56;;;;;;;1.70;1.50;;;;;;;-0.17;100.00;97673.69;5060790;28;20201;-84
2022/01/23 00:50:23;;;;;;;1.90;1.40;;;;;;;-0.13;100.00;97673.28;5056013;28;20220;-84
2022/01/23 00:52:50;;;;;;;1.80;1.20;;;;;;;-0.08;100.00;97672.88;5033335;28;20210;-84
2022/01/23 00:55:18;;;;;;;1.43;1.20;;;;;;;0.11;100.00;97664.16;5042890;28;20223;-83
2022/01/23 00:57:47;;;;;;;2.97;1.67;;;;;;;0.18;100.00;97676.78;5043911;28;20238;-84
2022/01/23 01:00:15;;;;;;;3.50;1.30;;;;;;;0.16;100.00;97672.59;5043514;28;20206;-85
2022/01/23 01:02:42;;;;;;;2.37;1.30;;;;;;;0.15;100.00;97670.91;5052118;28;20221;-83
2022/01/23 01:05:11;;;;;;;1.83;1.10;;;;;;;0.15;100.00;97681.53;5040235;28;20209;-84
2022/01/23 01:07:39;;;;;;;1.63;1.37;;;;;;;0.08;100.00;97667.94;5065278;28;20333;-83
2022/01/23 01:10:11;;;;;;;5.13;2.20;;;;;;;0.08;100.00;97680.38;5045609;28;20299;-83
2022/01/23 01:12:42;;;;;;;6.17;2.47;;;;;;;-0.01;100.00;97679.38;5055949;28;20202;-82
2022/01/23 01:31:46;;;;;;;3.73;1.83;;;;;;;-0.41;100.00;97669.47;5060811;28;20242;-83
2022/01/23 01:34:18;;;;;;;1.50;1.40;;;;;;;-0.43;100.00;97674.09;5055105;28;20403;-82
2022/01/23 01:36:50;;;;;;;3.10;2.07;;;;;;;-0.43;100.00;97679.41;5058576;28;20201;-83
2022/01/23 01:39:23;;;;;;;3.00;1.90;;;;;;;-0.48;100.00;97678.94;5057275;28;20237;-83
2022/01/23 01:41:52;;;;;;;3.63;1.80;;;;;;;-0.51;100.00;97689.78;5059505;28;20218;-83
2022/01/23 01:44:21;;;;;;;4.10;2.23;;;;;;;-0.52;100.00;97679.34;5051431;28;20217;-84
2022/01/23 01:46:58;;;;;;;4.53;2.03;;;;;;;-0.57;100.00;97679.72;5052831;28;20200;-86
2022/01/23 01:49:32;;;;;;;3.77;2.07;;;;;;;-0.58;100.00;97680.69;5042032;28;20276;-82
2022/01/23 01:52:01;;;;;;;2.87;1.90;;;;;;;-0.64;100.00;97678.53;5048208;28;20198;-84
2022/01/23 01:54:31;;;;;;;3.40;2.00;;;;;;;-0.69;100.00;97669.31;5050139;28;20238;-84
2022/01/23 01:57:07;;;;;;;2.10;1.80;;;;;;;-0.65;100.00;97681.31;5064564;28;20198;-84
2022/01/23 02:00:00;;;;;;;1.93;1.30;;;;;;;-0.72;100.00;97670.38;5052798;28;20218;-83
2022/01/23 02:03:20;;;;;;;4.60;1.50;;;;;;;-0.66;100.00;97671.69;5050086;28;20209;-83
2022/01/23 02:08:38;;;;;;;3.67;1.60;;;;;;;-0.70;100.00;97676.41;5056250;28;20202;-82
2022/01/23 02:11:11;;;;;;;1.57;1.17;;;;;;;-0.73;100.00;97673.16;5063871;28;20247;-83
2022/01/23 02:13:44;;;;;;;4.27;1.30;;;;;;;-0.76;100.00;97682.22;5061154;28;20213;-82
2022/01/23 02:16:38;;;;;;;2.03;1.00;;;;;;;-0.79;100.00;97685.97;5057854;28;20205;-84
2022/01/23 02:53:15;;;;;;;4.57;1.80;;;;;;;-1.02;100.00;97665.81;5045005;28;20230;-84
2022/01/23 02:55:48;;;;;;;1.90;1.67;;;;;;;-0.97;100.00;97670.75;5052945;28;20205;-83
2022/01/23 02:58:18;;;;;;;2.63;1.70;;;;;;;-1.00;100.00;97657.72;5057328;28;20275;-83
2022/01/23 03:00:59;;;;;;;1.83;1.50;;;;;;;-1.00;100.00;97661.22;5062253;28;20220;-84
2022/01/23 03:04:01;;;;;;;1.77;1.63;;;;;;;-1.06;100.00;97660.88;5061244;28;20205;-83
2022/01/23 03:06:56;;;;;;;3.33;1.60;;;;;;;-1.16;100.00;97647.53;5048255;28;20229;-84
2022/01/23 03:12:59;;;;;;;4.07;1.70;;;;;;;-1.11;100.00;97658.63;5057849;28;20236;-83
2022/01/23 03:15:11;;;;;;;2.50;1.60;;;;;;;-1.11;100.00;97661.28;5057187;28;20230;-83
2022/01/23 03:28:50;;;;;;;2.80;1.57;;;;;;;-1.29;100.00;97681.34;5065302;28;20201;-82
2022/01/23 03:31:23;;;;;;;2.00;1.83;;;;;;;-1.29;100.00;97681.34;5045638;28;20213;-84
2022/01/23 03:33:51;;;;;;;2.13;1.50;;;;;;;-1.28;100.00;97686.50;5047615;28;20206;-84
2022/01/23 03:36:18;;;;;;;3.40;1.67;;;;;;;-1.28;100.00;97683.03;5063358;28;20205;-82
2022/01/23 03:38:45;;;;;;;3.47;1.63;;;;;;;-1.27;100.00;97690.81;5046383;28;20324;-84
2022/01/23 03:41:13;;;;;;;2.10;1.80;;;;;;;-1.28;100.00;97689.16;5050360;28;20451;-82
2022/01/23 03:43:42;;;;;;;5.13;1.77;;;;;;;-1.34;100.00;97688.78;5063796;28;20244;-82
2022/01/23 03:46:34;;;;;;;2.83;1.70;;;;;;;-1.42;100.00;97691.22;5056961;28;20234;-84
2022/01/23 03:51:55;;;;;;;2.77;1.93;;;;;;;-1.38;100.00;97708.56;5044367;28;20231;-83
2022/01/23 03:54:23;;;;;;;2.47;1.60;;;;;;;-1.39;100.00;97701.59;5047851;28;20225;-83
2022/01/23 03:56:51;;;;;;;2.03;1.43;;;;;;;-1.39;100.00;97702.44;5047444;28;20259;-83
2022/01/23 03:59:19;;;;;;;1.50;1.20;;;;;;;-1.37;100.00;97704.97;5047278;28;20209;-84
2022/01/23 04:01:47;;;;;;;2.10;1.33;;;;;;;-1.35;100.00;97703.00;5043830;28;20201;-85
2022/01/23 04:04:26;;;;;;;1.77;1.57;;;;;;;-1.33;100.00;97717.81;5044387;28;20198;-84
2022/01/23 04:06:54;;;;;;;2.93;1.70;;;;;;;-1.38;100.00;97713.88;5049548;28;20224;-84
2022/01/23 04:09:21;;;;;;;4.97;1.80;;;;;;;-1.38;100.00;97720.00;5040333;28;20229;-84
2022/01/23 04:11:49;;;;;;;3.23;1.50;;;;;;;-1.41;100.00;97714.94;5059404;28;20267;-83
2022/01/23 04:14:18;;;;;;;1.83;1.47;;;;;;;-1.36;100.00;97730.50;5064131;28;20287;-86
2022/01/23 04:17:10;;;;;;;1.60;1.30;;;;;;;-1.42;100.00;97717.72;5057268;28;20208;-83
2022/01/23 04:19:53;;;;;;;2.87;1.67;;;;;;;-1.44;100.00;97725.78;5061760;28;20213;-86
2022/01/23 04:33:45;;;;;;;4.63;2.30;;;;;;;-1.53;100.00;97722.06;5059228;28;20208;-83
2022/01/23 05:01:05;;;;;;;2.70;1.73;;;;;;;-1.45;100.00;97744.47;5022237;28;20275;-83
2022/01/23 05:06:42;;;;;;;4.50;2.30;;;;;;;-1.46;100.00;97733.03;5049698;28;20232;-83
2022/01/23 05:09:16;;;;;;;3.00;2.13;;;;;;;-1.37;100.00;97742.06;5062460;28;20217;-85
2022/01/23 05:11:56;;;;;;;4.37;2.10;;;;;;;-1.43;100.00;97734.56;5052063;28;20325;-82
2022/01/23 05:14:29;;;;;;;3.80;2.33;;;;;;;-1.39;100.00;97728.91;5052093;28;20218;-83
2022/01/23 05:16:57;;;;;;;2.80;1.93;;;;;;;-1.40;100.00;97742.28;5060176;28;20200;-82
2022/01/23 05:19:25;;;;;;;2.80;2.03;;;;;;;-1.43;100.00;97743.38;5048999;28;20301;-82
2022/01/23 05:22:09;;;;;;;3.10;2.17;;;;;;;-1.49;100.00;97737.72;5054529;28;20202;-84
2022/01/23 05:24:40;;;;;;;2.53;2.07;;;;;;;-1.57;100.00;97749.75;5056606;28;20213;-82
2022/01/23 05:27:09;;;;;;;2.47;2.10;;;;;;;-1.53;100.00;97756.50;5051326;28;20209;-83
2022/01/23 05:29:37;;;;;;;3.57;2.40;;;;;;;-1.56;100.00;97750.59;5046385;28;20211;-83
2022/01/23 05:32:08;;;;;;;7.60;4.67;;;;;;;-1.63;100.00;97744.97;5049088;28;20201;-83
2022/01/23 05:34:35;;;;;;;5.73;3.43;;;;;;;-1.67;100.00;97737.38;5045743;28;20252;-83
2022/01/23 05:37:12;;;;;;;4.60;2.63;;;;;;;-1.61;100.00;97740.34;5044586;28;20219;-82
2022/01/23 05:39:43;;;;;;;3.93;2.73;;;;;;;-1.55;100.00;97733.75;5062417;28;20293;-85
2022/01/23 05:42:10;;;;;;;6.53;2.70;;;;;;;-1.52;100.00;97734.34;5071484;28;20204;-83
2022/01/23 05:44:40;;;;;;;3.80;2.50;;;;;;;-1.57;100.00;97741.81;5054700;28;20205;-83
2022/01/23 05:47:10;;;;;;;2.43;2.23;;;;;;;-1.53;100.00;97743.25;5042976;28;20213;-83
2022/01/23 05:50:04;;;;;;;4.10;2.30;;;;;;;-1.61;100.00;97747.47;5060175;28;20219;-83
2022/01/23 05:52:53;;;;;;;6.30;2.63;;;;;;;-1.66;100.00;97755.78;5059437;28;20293;-83
2022/01/23 05:55:34;;;;;;;4.00;2.37;;;;;;;-1.67;100.00;97758.53;5061935;28;20210;-83
2022/01/23 05:58:21;;;;;;;7.20;2.47;;;;;;;-1.69;100.00;97766.59;5066402;28;20202;-85
2022/01/23 06:00:50;;;;;;;3.67;2.60;;;;;;;-1.73;100.00;97772.28;5048114;28;20209;-84
2022/01/23 06:03:21;;;;;;;2.97;2.57;;;;;;;-1.75;100.00;97769.75;5044387;28;20229;-82
2022/01/23 06:05:56;;;;;;;5.67;2.70;;;;;;;-1.72;100.00;97764.22;5053530;28;20252;-84
2022/01/23 06:08:28;;;;;;;3.93;2.50;;;;;;;-1.78;100.00;97764.66;5067076;28;20220;-83
2022/01/23 06:10:56;;;;;;;4.17;2.47;;;;;;;-1.83;100.00;97758.06;5058565;28;20291;-83
2022/01/23 06:13:44;;;;;;;4.83;2.80;;;;;;;-1.82;100.00;97768.53;5059490;28;20304;-83
2022/01/23 06:16:13;;;;;;;3.60;2.83;;;;;;;-1.85;100.00;97762.63;5065393;28;20240;-83
2022/01/23 06:18:45;;;;;;;4.40;2.60;;;;;;;-1.87;100.00;97768.03;5067382;28;20198;-83
2022/01/23 06:21:31;;;;;;;17.83;9.10;;;;;;;-1.86;100.00;97766.22;5061927;28;20241;-83
2022/01/23 06:24:45;;;;;;;7.53;4.13;;;;;;;-1.85;100.00;97773.22;5052057;28;20207;-83
2022/01/23 06:27:31;;;;;;;4.57;2.83;;;;;;;-1.86;100.00;97774.16;5067759;28;20311;-84
2022/01/23 06:29:58;;;;;;;4.90;2.83;;;;;;;-1.85;100.00;97782.00;5046862;28;20243;-84
2022/01/23 06:32:26;;;;;;;3.47;2.80;;;;;;;-1.83;100.00;97777.44;5064784;28;20216;-83
2022/01/23 06:34:54;;;;;;;5.10;3.20;;;;;;;-1.86;100.00;97775.00;5060037;28;20229;-83
2022/01/23 06:37:22;;;;;;;4.87;2.83;;;;;;;-1.86;100.00;97792.69;5066698;28;20204;-83
2022/01/23 06:39:51;;;;;;;4.93;2.90;;;;;;;-1.94;100.00;97788.84;5071592;28;20198;-83
2022/01/23 06:42:36;;;;;;;4.83;2.83;;;;;;;-1.92;100.00;97804.63;5044058;28;20297;-84
2022/01/23 06:45:16;;;;;;;6.87;3.23;;;;;;;-1.99;100.00;97798.13;5046957;28;20216;-84
2022/01/23 06:47:43;;;;;;;4.03;2.90;;;;;;;-1.97;100.00;97806.78;5063537;28;20201;-83
2022/01/23 06:50:11;;;;;;;4.53;2.90;;;;;;;-1.99;100.00;97808.69;5064362;28;20265;-83
2022/01/23 06:52:38;;;;;;;4.33;3.00;;;;;;;-1.95;100.00;97815.44;5052834;28;20201;-83
2022/01/23 06:55:07;;;;;;;4.93;2.93;;;;;;;-1.95;100.00;97802.19;5053298;28;20236;-84
2022/01/23 06:57:36;;;;;;;4.37;3.27;;;;;;;-1.94;100.00;97801.25;5068758;28;20298;-83
2022/01/23 07:00:04;;;;;;;6.70;3.90;;;;;;;-1.88;100.00;97805.25;5047734;28;20202;-84
2022/01/23 07:02:57;;;;;;;6.13;3.63;;;;;;;-1.90;100.00;97821.25;5040267;28;20209;-82
2022/01/23 07:05:45;;;;;;;8.23;3.40;;;;;;;-1.93;100.00;97822.31;5061179;28;20240;-83
2022/01/23 07:08:18;;;;;;;5.87;3.60;;;;;;;-1.92;100.00;97825.78;5048424;28;20205;-82
2022/01/23 07:11:06;;;;;;;4.97;3.80;;;;;;;-1.88;100.00;97827.25;5063719;28;20325;-83
2022/01/23 07:14:04;;;;;;;7.37;3.90;;;;;;;-1.86;100.00;97827.97;5062954;28;20217;-83
2022/01/23 07:16:50;;;;;;;5.77;4.30;;;;;;;-1.86;100.00;97830.63;5064349;28;20300;-83
2022/01/23 07:19:25;;;;;;;7.03;4.07;;;;;;;-1.91;100.00;97830.13;5048440;28;20237;-83
2022/01/23 07:22:13;;;;;;;9.23;5.30;;;;;;;-1.97;100.00;97841.19;5058933;28;20208;-83
2022/01/23 07:24:40;;;;;;;6.57;4.37;;;;;;;-1.86;100.00;97843.84;5057174;28;20311;-83
2022/01/23 07:27:15;;;;;;;7.00;4.00;;;;;;;-1.97;100.00;97831.47;5045346;28;20216;-83
2022/01/23 07:29:43;;;;;;;8.80;4.83;;;;;;;-1.92;100.00;97839.88;5042020;28;20219;-84
2022/01/23 07:32:11;;;;;;;14.70;6.13;;;;;;;-1.94;100.00;97833.00;5062726;28;20193;-82
2022/01/23 07:34:39;;;;;;;10.17;5.33;;;;;;;-1.93;100.00;97818.81;5046462;28;20210;-83
2022/01/23 07:37:10;;;;;;;9.87;5.20;;;;;;;-1.92;100.00;97821.34;5063722;28;20220;-83
2022/01/23 07:40:00;;;;;;;12.73;6.10;;;;;;;-1.90;100.00;97818.59;5042787;28;20217;-83
2022/01/23 07:42:36;;;;;;;10.83;5.93;;;;;;;-1.96;100.00;97805.84;5042785;28;20215;-83
2022/01/23 07:45:04;;;;;;;10.03;5.60;;;;;;;-1.97;100.00;97796.19;5063355;28;20331;-82
2022/01/23 07:47:50;;;;;;;13.10;6.20;;;;;;;-1.98;100.00;97805.09;5057340;28;20287;-82
2022/01/23 07:50:32;;;;;;;12.23;6.97;;;;;;;-2.02;100.00;97801.81;5043003;28;20216;-83
2022/01/23 07:53:19;;;;;;;9.90;5.70;;;;;;;-1.98;100.00;97807.75;5061610;28;20327;-83
2022/01/23 07:56:06;;;;;;;11.00;6.07;;;;;;;-1.92;100.00;97812.56;5033944;28;20226;-83
2022/01/23 07:58:53;;;;;;;8.73;5.40;;;;;;;-1.88;100.00;97807.88;5058050;28;20225;-82
2022/01/23 08:01:31;;;;;;;9.87;6.10;;;;;;;-1.88;100.00;97806.09;5058674;28;20213;-83
2022/01/23 08:04:27;;;;;;;10.53;6.60;;;;;;;-1.82;100.00;97805.59;5060542;28;20280;-84
2022/01/23 08:07:08;;;;;;;8.33;6.03;;;;;;;-1.77;100.00;97798.13;5044616;28;20225;-84
2022/01/23 08:09:44;;;;;;;8.80;5.40;;;;;;;-1.77;100.00;97787.53;5046144;28;20205;-82
2022/01/23 08:12:11;;;;;;;8.00;5.27;;;;;;;-1.78;100.00;97788.50;5030667;28;20210;-82
2022/01/23 08:14:40;;;;;;;9.17;5.30;;;;;;;-1.75;100.00;97790.09;5034264;28;20212;-82
2022/01/23 08:17:07;;;;;;;9.67;5.30;;;;;;;-1.73;100.00;97791.66;5036670;28;20336;-83
2022/01/23 08:19:34;;;;;;;8.63;5.33;;;;;;;-1.72;100.00;97790.69;5033022;28;20397;-83
2022/01/23 08:22:01;;;;;;;9.10;5.37;;;;;;;-1.69;100.00;97801.03;5023620;28;20271;-83
2022/01/23 08:24:28;;;;;;;9.73;5.30;;;;;;;-1.64;100.00;97806.00;5028677;28;20209;-81
2022/01/23 08:26:55;;;;;;;7.17;4.33;;;;;;;-1.66;100.00;97803.44;5019549;28;20206;-83
2022/01/23 08:29:22;;;;;;;10.53;5.93;;;;;;;-1.63;100.00;97800.59;5029101;28;20235;-84
2022/01/23 08:31:51;;;;;;;11.03;5.70;;;;;;;-1.61;100.00;97806.56;5035899;28;20199;-83
2022/01/23 08:34:18;;;;;;;13.03;7.50;;;;;;;-1.63;100.00;97795.28;5025073;28;20219;-82
2022/01/23 08:36:45;;;;;;;24.30;11.77;;;;;;;-1.61;100.00;97803.09;5023994;28;20225;-86
2022/01/23 08:39:15;;;;;;;22.10;12.40;;;;;;;-1.69;100.00;97806.31;5019710;28;20254;-83
2022/01/23 08:41:51;;;;;;;20.97;11.50;;;;;;;-1.62;100.00;97807.56;5024199;28;20210;-85
2022/01/23 08:44:18;;;;;;;20.80;10.50;;;;;;;-1.57;100.00;97810.69;5031475;28;20287;-81
2022/01/23 08:46:46;;;;;;;18.13;9.70;;;;;;;-1.61;100.00;97803.94;5020245;28;20278;-83
2022/01/23 08:49:15;;;;;;;20.10;9.83;;;;;;;-1.55;100.00;97807.94;5016590;28;20198;-84
2022/01/23 08:51:43;;;;;;;21.17;9.80;;;;;;;-1.59;100.00;97811.75;5011690;28;20202;-84
2022/01/23 08:54:10;;;;;;;18.60;9.83;;;;;;;-1.56;100.00;97820.31;5018291;28;20212;-84
2022/01/23 08:56:37;;;;;;;19.73;11.27;;;;;;;-1.61;100.00;97814.53;5021676;28;20218;-83
2022/01/23 08:59:04;;;;;;;15.00;9.07;;;;;;;-1.54;100.00;97821.06;5016078;28;20205;-84
2022/01/23 09:01:32;;;;;;;14.03;8.33;;;;;;;-1.49;100.00;97822.50;5026768;28;20238;-82
2022/01/23 09:03:59;;;;;;;14.00;7.57;;;;;;;-1.47;100.00;97824.06;5033147;28;20230;-85
2022/01/23 09:06:27;;;;;;;14.17;7.33;;;;;;;-1.43;100.00;97822.00;5033899;28;20302;-84
2022/01/23 09:08:55;;;;;;;13.30;7.67;;;;;;;-1.41;100.00;97820.94;5033851;28;20194;-81
2022/01/23 09:11:27;;;;;;;13.13;7.27;;;;;;;-1.33;100.00;97828.28;5035516;28;20230;-86
2022/01/23 09:14:06;;;;;;;12.27;7.83;;;;;;;-1.29;100.00;97809.38;5055229;28;20198;-87
2022/01/23 09:16:34;;;;;;;16.73;7.93;;;;;;;-1.13;100.00;97819.59;5052170;28;20222;-83
2022/01/23 09:19:01;;;;;;;12.73;7.03;;;;;;;-0.98;100.00;97817.53;5040631;28;20213;-82
2022/01/23 09:21:30;;;;;;;13.57;7.53;;;;;;;-0.86;100.00;97825.34;5045038;28;20274;-82
2022/01/23 09:23:57;;;;;;;10.73;6.50;;;;;;;-0.72;100.00;97836.66;5034641;28;20199;-84
2022/01/23 09:26:25;;;;;;;11.27;7.00;;;;;;;-0.62;100.00;97822.53;5036580;28;20305;-83
2022/01/23 09:28:55;;;;;;;10.00;7.03;;;;;;;-0.53;100.00;97827.06;5054725;28;20215;-83
2022/01/23 09:31:33;;;;;;;10.87;7.80;;;;;;;-0.47;100.00;97833.69;5042714;28;20206;-83
2022/01/23 09:34:01;;;;;;;10.57;7.23;;;;;;;-0.38;100.00;97840.88;5040811;28;20533;-84
2022/01/23 09:36:28;;;;;;;12.03;7.07;;;;;;;-0.27;100.00;97827.59;5040323;28;20215;-83
2022/01/23 09:38:57;;;;;;;10.40;6.80;;;;;;;-0.22;100.00;97838.66;5059357;28;20214;-82
2022/01/23 09:41:29;;;;;;;11.30;6.53;;;;;;;-0.18;100.00;97837.44;5054475;28;20206;-83
2022/01/23 09:44:00;;;;;;;10.37;6.27;;;;;;;-0.04;100.00;97841.59;5044229;28;20216;-82
2022/01/23 09:46:28;;;;;;;9.97;6.60;;;;;;;0.07;100.00;97848.69;5046381;28;20215;-83
2022/01/23 09:48:55;;;;;;;10.33;7.17;;;;;;;0.13;100.00;97849.00;5042585;28;20254;-83
2022/01/23 09:51:25;;;;;;;9.70;6.40;;;;;;;0.20;100.00;97841.34;5057449;28;20223;-82
2022/01/23 09:53:54;;;;;;;9.77;6.13;;;;;;;0.28;100.00;97836.22;5051641;28;20207;-83
2022/01/23 09:56:27;;;;;;;11.90;7.33;;;;;;;0.47;100.00;97836.34;5049577;28;20229;-83
2022/01/23 09:58:55;;;;;;;12.00;7.23;;;;;;;0.55;100.00;97833.88;5048007;28;20214;-83
2022/01/23 10:01:23;;;;;;;11.33;7.77;;;;;;;0.64;100.00;97837.56;5047148;28;20247;-83
2022/01/23 10:03:50;;;;;;;12.00;6.93;;;;;;;0.76;100.00;97836.50;5052669;28;20432;-82
2022/01/23 10:06:18;;;;;;;9.50;6.37;;;;;;;0.92;100.00;97836.00;5037242;28;20297;-83
2022/01/23 10:08:45;;;;;;;9.97;6.07;;;;;;;0.98;100.00;97836.31;5050026;28;20208;-83
2022/01/23 10:11:14;;;;;;;8.70;6.03;;;;;;;1.00;100.00;97831.72;5047403;28;20381;-83
2022/01/23 10:13:44;;;;;;;11.37;7.90;;;;;;;1.11;100.00;97825.41;5058778;28;20204;-83
2022/01/23 10:16:11;;;;;;;13.10;9.07;;;;;;;1.24;100.00;97830.50;5045855;28;20248;-82
2022/01/23 10:18:39;;;;;;;13.10;8.80;;;;;;;1.33;100.00;97819.91;5053076;28;20269;-82
2022/01/23 10:21:06;;;;;;;13.93;9.00;;;;;;;1.44;100.00;97822.44;5034234;28;20202;-83
2022/01/23 10:23:34;;;;;;;11.43;8.10;;;;;;;1.50;100.00;97813.06;5065273;28;20209;-82
2022/01/23 10:26:03;;;;;;;11.07;7.93;;;;;;;1.60;100.00;97807.75;5057123;28;20207;-83
2022/01/23 10:28:32;;;;;;;13.83;7.87;;;;;;;1.66;100.00;97788.53;5039575;28;20214;-83
2022/01/23 10:31:03;;;;;;;11.83;8.13;;;;;;;1.80;100.00;97788.97;5043772;28;20233;-83
2022/01/23 10:33:33;;;;;;;11.03;8.30;;;;;;;1.98;100.00;97782.91;5056818;28;20206;-83
2022/01/23 10:36:03;;;;;;;13.23;7.97;;;;;;;2.13;100.00;97786.81;5041674;28;20223;-82
2022/01/23 10:38:32;;;;;;;12.80;8.40;;;;;;;2.31;100.00;97786.94;5060163;28;20274;-83
2022/01/23 10:41:12;;;;;;;11.23;7.50;;;;;;;2.46;100.00;97790.84;5041562;28;20214;-83
2022/01/23 10:47:12;;;;;;;11.60;8.53;;;;;;;2.73;100.00;97793.53;5063046;28;20263;-83
2022/01/23 10:49:47;;;;;;;12.33;8.23;;;;;;;2.84;100.00;97788.03;5053962;28;20206;-83
2022/01/23 10:52:26;;;;;;;10.80;8.33;;;;;;;2.92;100.00;97792.63;5044112;28;20293;-83
2022/01/23 10:54:53;;;;;;;16.77;8.47;;;;;;;2.96;100.00;97786.03;5034260;28;20207;-84
2022/01/23 10:57:20;;;;;;;10.60;8.07;;;;;;;3.09;100.00;97793.66;5034365;28;20218;-83
2022/01/23 10:59:48;;;;;;;10.83;8.23;;;;;;;3.17;100.00;97772.41;5050589;28;20286;-84
2022/01/23 11:02:21;;;;;;;12.30;7.10;;;;;;;3.30;100.00;97771.09;5074662;28;20216;-83
2022/01/23 11:04:57;;;;;;;10.57;7.97;;;;;;;3.61;100.00;97776.06;5043484;28;20242;-84
2022/01/23 11:07:25;;;;;;;11.43;7.20;;;;;;;3.73;100.00;97770.34;5061753;28;20248;-85
2022/01/23 11:09:57;;;;;;;11.07;7.57;;;;;;;3.77;100.00;97771.72;5039711;28;20210;-85
2022/01/23 11:12:44;;;;;;;10.10;6.90;;;;;;;3.90;98.74;97773.16;5062262;28;20305;-84
2022/01/23 11:18:38;;;;;;;15.97;7.83;;;;;;;4.37;96.44;97768.34;5060801;28;20231;-84
2022/01/23 11:21:17;;;;;;;14.30;7.00;;;;;;;4.57;95.01;97765.31;5071721;28;20205;-85
2022/01/23 11:23:44;;;;;;;14.93;6.83;;;;;;;4.83;94.69;97765.28;5057199;28;20225;-84
2022/01/23 11:26:13;;;;;;;8.40;6.73;;;;;;;4.93;92.77;97751.78;5055165;28;20210;-85
2022/01/23 11:28:44;;;;;;;12.63;7.00;;;;;;;4.95;90.84;97752.44;5063925;28;20285;-84
2022/01/23 11:31:14;;;;;;;12.67;7.00;;;;;;;5.12;89.47;97742.63;5052022;28;20210;-83
2022/01/23 11:33:42;;;;;;;8.60;6.37;;;;;;;5.08;89.67;97727.91;5066695;28;20289;-88
2022/01/23 11:36:10;;;;;;;9.17;6.40;;;;;;;5.22;88.75;97727.25;5054774;28;20219;-84
2022/01/23 11:38:39;;;;;;;8.83;6.30;;;;;;;5.42;88.16;97727.84;5032688;28;20206;-85
2022/01/23 11:55:08;;;;;;;8.30;5.77;;;;;;;5.60;84.01;97688.34;5061392;28;20213;-84
2022/01/23 11:57:44;;;;;;;8.80;6.00;;;;;;;5.58;84.40;97685.81;5046215;28;20235;-83
2022/01/23 12:00:21;;;;;;;7.50;5.60;;;;;;;5.42;84.32;97667.06;5048039;28;20198;-84
2022/01/23 12:03:15;;;;;;;10.43;6.20;;;;;;;5.30;85.26;97671.03;5053482;28;20207;-83
2022/01/23 12:05:45;;;;;;;10.13;6.53;;;;;;;5.56;85.47;97654.84;5049595;28;20325;-84
2022/01/23 12:08:19;;;;;;;9.37;6.10;;;;;;;5.66;83.43;97663.53;5043197;28;20206;-84
2022/01/23 12:17:12;;;;;;;8.80;6.10;;;;;;;5.82;82.22;97651.97;5054203;28;20236;-82
2022/01/23 12:19:45;;;;;;;8.13;5.57;;;;;;;5.53;83.00;97641.78;5042245;28;20268;-84
2022/01/23 12:22:41;;;;;;;8.00;5.50;;;;;;;5.55;84.16;97639.75;5061099;28;20202;-84
2022/01/23 12:25:15;;;;;;;10.83;6.27;;;;;;;5.77;82.85;97630.22;5047072;28;20232;-83
2022/01/23 12:27:42;;;;;;;12.00;5.50;;;;;;;5.55;82.84;97626.34;5056310;28;20228;-83
2022/01/23 12:30:40;;;;;;;12.97;5.90;;;;;;;5.65;83.33;97619.00;5058353;28;20300;-84
2022/01/23 12:33:14;;;;;;;11.30;5.50;;;;;;;5.70;81.90;97625.50;5046159;28;20210;-83
2022/01/23 12:35:45;;;;;;;7.33;5.40;;;;;;;5.61;81.89;97615.00;5051564;28;20218;-84
2022/01/23 12:38:14;;;;;;;7.37;5.43;;;;;;;5.58;82.11;97604.59;5043576;28;20222;-84
2022/01/23 12:40:45;;;;;;;6.43;5.30;;;;;;;5.66;82.05;97605.44;5060881;28;20271;-83
2022/01/23 12:43:16;;;;;;;10.73;6.80;;;;;;;5.63;83.36;97597.72;5057794;28;20197;-83
2022/01/23 12:45:47;;;;;;;9.40;5.30;;;;;;;5.80;81.08;97608.41;5054133;28;20588;-84
2022/01/23 12:48:48;;;;;;;6.83;4.70;;;;;;;5.51;81.51;97595.56;5059188;28;20288;-84
2022/01/23 12:51:42;;;;;;;10.33;6.97;;;;;;;5.34;83.39;97592.06;5055296;28;20206;-84
2022/01/23 12:54:17;;;;;;;13.37;6.33;;;;;;;5.49;84.64;97590.38;5058638;28;20214;-85
2022/01/23 12:56:46;;;;;;;10.57;5.93;;;;;;;5.47;83.92;97580.81;5055799;28;20245;-83
2022/01/23 12:59:22;;;;;;;10.87;6.60;;;;;;;5.05;86.33;97572.94;5058702;28;20209;-84
2022/01/23 13:01:59;;;;;;;7.13;5.30;;;;;;;4.83;87.32;97572.59;5046116;28;20217;-84
2022/01/23 13:04:32;;;;;;;8.73;6.00;;;;;;;4.78;88.70;97568.72;5049351;28;20216;-85
2022/01/23 13:07:08;;;;;;;13.17;5.80;;;;;;;4.58;89.44;97565.50;5047351;28;20218;-83
2022/01/23 13:09:43;;;;;;;11.37;6.70;;;;;;;4.41;91.49;97561.94;5040544;28;20329;-84
2022/01/23 13:12:17;;;;;;;13.70;6.93;;;;;;;4.21;92.71;97571.22;5035895;28;20247;-87
2022/01/23 13:14:55;;;;;;;10.00;6.47;;;;;;;4.03;94.33;97567.78;5037153;28;20292;-85
2022/01/23 13:17:45;;;;;;;8.23;6.33;;;;;;;3.97;95.50;97571.13;5043865;28;20217;-84
2022/01/23 13:26:47;;;;;;;9.17;6.90;;;;;;;3.78;98.23;97574.84;5048866;28;20317;-83
2022/01/23 13:32:21;;;;;;;12.00;7.67;;;;;;;3.65;100.00;97580.63;5044075;28;20208;-83
2022/01/23 13:34:51;;;;;;;14.63;7.83;;;;;;;3.58;100.00;97587.56;5062087;28;20205;-84
2022/01/23 13:37:20;;;;;;;12.70;8.67;;;;;;;3.47;100.00;97585.16;5062327;28;20217;-85
2022/01/23 13:39:53;;;;;;;12.70;8.07;;;;;;;3.41;100.00;97583.94;5035914;28;20204;-86
2022/01/23 13:42:49;;;;;;;11.80;8.43;;;;;;;3.34;100.00;97588.22;5035740;28;20264;-84
2022/01/23 13:53:52;;;;;;;10.70;8.73;;;;;;;2.73;100.00;97598.84;5065625;28;20304;-84
2022/01/23 13:59:19;;;;;;;13.70;9.13;;;;;;;2.62;100.00;97612.41;4997856;28;20214;-84
2022/01/23 14:01:51;;;;;;;12.10;8.73;;;;;;;2.58;100.00;97606.53;5052926;28;20231;-83
2022/01/23 14:04:21;;;;;;;11.47;8.70;;;;;;;2.54;100.00;97609.66;5055220;28;20201;-84
2022/01/23 14:06:50;;;;;;;13.00;8.50;;;;;;;2.58;100.00;97613.69;5055441;28;20235;-83
2022/01/23 14:09:18;;;;;;;13.40;9.40;;;;;;;2.55;100.00;97627.31;5053652;28;20293;-83
2022/01/23 14:11:46;;;;;;;12.07;9.40;;;;;;;2.54;100.00;97630.97;5029533;28;20242;-84
2022/01/23 14:14:17;;;;;;;14.20;8.83;;;;;;;2.51;100.00;97625.94;5049023;28;20205;-84
2022/01/23 14:16:47;;;;;;;14.70;10.37;;;;;;;2.47;100.00;97620.03;5063752;28;20240;-84
2022/01/23 14:19:19;;;;;;;12.17;9.63;;;;;;;2.45;100.00;97629.19;5052792;28;20265;-84
2022/01/23 14:21:48;;;;;;;13.93;9.43;;;;;;;2.49;100.00;97628.75;5059152;28;20210;-84
2022/01/23 14:24:25;;;;;;;11.73;8.77;;;;;;;2.54;100.00;97631.81;5055649;28;20255;-84
2022/01/23 14:27:01;;;;;;;13.03;9.03;;;;;;;2.54;100.00;97631.81;5060359;28;20227;-85
2022/01/23 14:29:32;;;;;;;15.03;9.13;;;;;;;2.48;100.00;97637.72;5060289;28;20227;-84
2022/01/23 14:32:14;;;;;;;16.20;9.27;;;;;;;2.44;100.00;97636.34;5062615;28;20211;-84
2022/01/23 14:34:42;;;;;;;14.63;8.87;;;;;;;2.44;100.00;97633.69;5046688;28;20206;-84
2022/01/23 14:37:09;;;;;;;12.33;9.10;;;;;;;2.40;100.00;97639.44;5040108;28;20205;-84
2022/01/23 14:39:37;;;;;;;11.33;8.73;;;;;;;2.38;100.00;97631.63;5038387;28;20210;-86
2022/01/23 14:42:18;;;;;;;12.37;8.97;;;;;;;2.39;100.00;97632.44;5062924;28;20240;-85